createdAt,value
2019-03-20T00:02:08.991Z,1.30
2019-03-20T00:04:37.552Z,1.73
2019-03-20T00:07:06.143Z,1.70
2019-03-20T00:09:34.762Z,1.87
2019-03-20T00:12:03.329Z,1.50
2019-03-20T00:14:31.919Z,1.70
2019-03-20T00:17:00.547Z,1.80
2019-03-20T00:19:29.125Z,1.30
2019-03-20T00:21:57.804Z,1.27
2019-03-20T00:24:26.351Z,1.40
2019-03-20T00:26:54.940Z,1.37
2019-03-20T00:29:23.599Z,1.43
2019-03-20T00:31:52.175Z,1.50
2019-03-20T00:34:20.718Z,1.40
2019-03-20T00:36:49.340Z,1.50
2019-03-20T00:39:18.017Z,1.20
2019-03-20T00:41:46.598Z,1.73
2019-03-20T00:44:15.188Z,1.47
2019-03-20T00:46:43.726Z,1.70
2019-03-20T00:49:12.311Z,1.30
2019-03-20T00:51:40.898Z,1.13
2019-03-20T00:54:09.471Z,1.17
2019-03-20T00:56:38.063Z,1.60
2019-03-20T00:59:06.736Z,1.30
2019-03-20T01:01:35.322Z,1.20
2019-03-20T01:04:03.884Z,1.63
2019-03-20T01:06:32.452Z,1.60
2019-03-20T01:09:01.043Z,1.20
2019-03-20T01:11:29.685Z,1.17
2019-03-20T01:13:58.324Z,1.13
2019-03-20T01:16:26.926Z,1.40
2019-03-20T01:18:55.565Z,1.30
2019-03-20T01:21:24.131Z,1.10
2019-03-20T01:23:52.692Z,1.50
2019-03-20T01:26:21.279Z,1.63
2019-03-20T01:28:50.093Z,1.80
2019-03-20T01:31:18.656Z,1.90
2019-03-20T01:33:47.203Z,1.43
2019-03-20T01:36:15.768Z,1.20
2019-03-20T01:38:44.349Z,1.40
2019-03-20T01:41:12.922Z,1.50
2019-03-20T01:43:41.566Z,1.87
2019-03-20T01:46:10.113Z,1.73
2019-03-20T01:48:38.674Z,1.20
2019-03-20T01:51:35.490Z,1.13
2019-03-20T01:54:04.045Z,1.20
2019-03-20T01:56:32.598Z,1.70
2019-03-20T01:59:01.371Z,1.10
2019-03-20T02:01:29.909Z,1.03
2019-03-20T02:03:58.472Z,1.53
2019-03-20T02:06:27.065Z,1.40
2019-03-20T02:08:55.647Z,1.80
2019-03-20T02:11:24.212Z,1.73
2019-03-20T02:13:52.786Z,1.47
2019-03-20T02:16:21.339Z,1.50
2019-03-20T02:18:49.899Z,1.90
2019-03-20T02:21:18.483Z,1.50
2019-03-20T02:23:47.082Z,1.90
2019-03-20T02:26:15.750Z,1.90
2019-03-20T02:28:44.346Z,1.40
2019-03-20T02:31:12.918Z,1.27
2019-03-20T02:33:41.491Z,1.90
2019-03-20T02:36:10.069Z,2.00
2019-03-20T02:38:38.604Z,1.60
2019-03-20T02:41:07.479Z,1.90
2019-03-20T02:43:36.116Z,1.90
2019-03-20T02:46:04.666Z,1.60
2019-03-20T02:48:33.380Z,1.80
2019-03-20T02:51:01.974Z,1.40
2019-03-20T02:53:30.560Z,1.60
2019-03-20T02:55:59.124Z,1.47
2019-03-20T02:58:27.748Z,1.30
2019-03-20T03:00:56.344Z,1.47
2019-03-20T03:03:24.906Z,1.90
2019-03-20T03:06:06.061Z,1.17
2019-03-20T03:08:23.767Z,1.40
2019-03-20T03:10:55.526Z,1.77
2019-03-20T03:13:22.595Z,1.40
2019-03-20T03:15:51.343Z,1.30
2019-03-20T03:18:19.903Z,1.40
2019-03-20T03:20:48.459Z,1.77
2019-03-20T03:23:17.068Z,1.10
2019-03-20T03:25:45.619Z,1.70
2019-03-20T03:28:14.180Z,1.47
2019-03-20T03:30:42.770Z,1.20
2019-03-20T03:33:11.405Z,1.30
2019-03-20T03:35:40.051Z,1.90
2019-03-20T03:38:08.617Z,1.43
2019-03-20T03:40:37.233Z,1.30
2019-03-20T03:43:05.904Z,1.30
2019-03-20T03:45:34.557Z,1.57
2019-03-20T03:48:03.121Z,1.80
2019-03-20T03:50:31.791Z,1.70
2019-03-20T03:53:00.373Z,1.37
2019-03-20T03:55:29.020Z,1.70
2019-03-20T03:57:57.878Z,1.80
2019-03-20T04:00:26.533Z,1.60
2019-03-20T04:02:55.089Z,1.40
2019-03-20T04:05:23.592Z,1.40
2019-03-20T04:07:52.227Z,1.20
2019-03-20T04:10:20.813Z,1.43
2019-03-20T04:12:49.409Z,1.20
2019-03-20T04:15:18.051Z,1.50
2019-03-20T04:17:46.612Z,1.03
2019-03-20T04:20:15.168Z,1.40
2019-03-20T04:22:43.918Z,1.80
2019-03-20T04:25:12.536Z,1.33
2019-03-20T04:27:41.161Z,1.40
2019-03-20T04:30:10.244Z,1.60
2019-03-20T04:32:38.823Z,1.40
2019-03-20T04:35:07.607Z,1.80
2019-03-20T04:37:36.191Z,1.80
2019-03-20T04:40:04.962Z,1.20
2019-03-20T04:42:33.581Z,1.80
2019-03-20T04:45:02.175Z,1.67
2019-03-20T04:47:30.772Z,1.53
2019-03-20T04:49:59.330Z,1.90
2019-03-20T04:52:27.916Z,1.20
2019-03-20T04:54:56.550Z,1.30
2019-03-20T04:57:25.181Z,1.90
2019-03-20T04:59:53.773Z,1.87
2019-03-20T05:02:22.383Z,1.27
2019-03-20T05:04:50.930Z,1.13
2019-03-20T05:07:19.562Z,1.30
2019-03-20T05:09:48.203Z,1.10
2019-03-20T05:12:16.746Z,1.80
2019-03-20T05:14:45.347Z,1.40
2019-03-20T05:17:13.914Z,1.70
2019-03-20T05:19:42.471Z,1.50
2019-03-20T05:22:11.053Z,1.40
2019-03-20T05:24:39.607Z,1.30
2019-03-20T05:27:08.184Z,1.33
2019-03-20T05:29:36.824Z,1.40
2019-03-20T05:32:05.401Z,1.33
2019-03-20T05:34:34.038Z,1.20
2019-03-20T05:37:10.322Z,1.20
2019-03-20T05:39:32.980Z,1.13
2019-03-20T05:42:01.603Z,1.80
2019-03-20T05:44:30.179Z,1.80
2019-03-20T05:46:58.698Z,1.10
2019-03-20T05:49:27.294Z,1.30
2019-03-20T05:51:55.879Z,1.20
2019-03-20T05:54:24.438Z,1.13
2019-03-20T05:56:53.019Z,1.20
2019-03-20T05:59:21.601Z,1.40
2019-03-20T06:01:50.182Z,1.20
2019-03-20T06:04:18.770Z,1.10
2019-03-20T06:06:47.351Z,1.27
2019-03-20T06:09:15.955Z,1.30
2019-03-20T06:11:44.520Z,1.20
2019-03-20T06:14:13.107Z,1.00
2019-03-20T06:16:41.663Z,1.23
2019-03-20T06:19:10.266Z,1.23
2019-03-20T06:21:38.872Z,1.17
2019-03-20T06:24:07.435Z,1.40
2019-03-20T06:26:36.038Z,1.40
2019-03-20T06:29:04.600Z,1.30
2019-03-20T06:31:33.182Z,1.60
2019-03-20T06:34:01.817Z,1.33
2019-03-20T06:36:30.497Z,1.50
2019-03-20T06:38:59.074Z,1.00
2019-03-20T06:41:27.681Z,1.40
2019-03-20T06:43:56.298Z,1.33
2019-03-20T06:46:24.882Z,1.40
2019-03-20T06:48:53.478Z,1.80
2019-03-20T06:51:22.259Z,1.40
2019-03-20T06:53:50.826Z,1.30
2019-03-20T06:56:19.491Z,1.70
2019-03-20T06:58:48.063Z,1.30
2019-03-20T07:01:22.911Z,1.40
2019-03-20T07:04:07.086Z,1.10
2019-03-20T07:07:09.971Z,1.23
2019-03-20T07:09:44.098Z,1.37
2019-03-20T07:12:12.659Z,1.63
2019-03-20T07:14:41.222Z,1.40
2019-03-20T07:17:10.081Z,1.30
2019-03-20T07:19:38.640Z,1.63
2019-03-20T07:22:07.199Z,1.80
2019-03-20T07:24:35.839Z,1.77
2019-03-20T07:27:04.507Z,1.40
2019-03-20T07:29:33.163Z,1.20
2019-03-20T07:32:01.745Z,1.33
2019-03-20T07:34:30.294Z,1.00
2019-03-20T07:36:58.846Z,1.20
2019-03-20T07:39:27.459Z,1.20
2019-03-20T07:41:56.082Z,1.00
2019-03-20T07:44:24.755Z,1.20
2019-03-20T07:46:53.434Z,1.10
2019-03-20T07:49:22.090Z,1.30
2019-03-20T07:51:50.907Z,1.30
2019-03-20T07:54:19.480Z,1.10
2019-03-20T07:56:48.042Z,1.20
2019-03-20T07:59:16.619Z,1.20
2019-03-20T08:01:45.171Z,1.20
2019-03-20T08:04:13.777Z,1.30
2019-03-20T08:06:42.358Z,1.30
2019-03-20T08:09:10.898Z,1.27
2019-03-20T08:11:39.446Z,1.20
2019-03-20T08:14:07.997Z,1.60
2019-03-20T08:16:36.647Z,1.20
2019-03-20T08:19:05.225Z,1.20
2019-03-20T08:21:33.863Z,1.20
2019-03-20T08:24:02.446Z,1.10
2019-03-20T08:26:31.006Z,1.00
2019-03-20T08:28:59.562Z,1.00
2019-03-20T08:31:28.147Z,1.10
2019-03-20T08:33:56.690Z,1.00
2019-03-20T08:36:25.233Z,1.13
2019-03-20T08:38:53.835Z,0.90
2019-03-20T08:41:22.439Z,1.10
2019-03-20T08:43:50.991Z,1.10
2019-03-20T08:46:19.624Z,1.10
2019-03-20T08:48:48.497Z,1.20
2019-03-20T08:51:17.288Z,1.07
2019-03-20T08:53:45.977Z,1.10
2019-03-20T08:56:14.556Z,1.20
2019-03-20T08:58:43.187Z,0.93
2019-03-20T09:01:11.821Z,1.00
2019-03-20T09:03:40.378Z,1.00
2019-03-20T09:06:09.017Z,1.10
2019-03-20T09:08:37.735Z,1.10
2019-03-20T09:11:06.287Z,1.10
2019-03-20T09:13:34.855Z,1.10
2019-03-20T09:16:03.442Z,1.27
2019-03-20T09:18:32.000Z,1.00
2019-03-20T09:21:00.581Z,1.20
2019-03-20T09:23:29.195Z,1.10
2019-03-20T09:25:57.741Z,1.30
2019-03-20T09:28:26.299Z,1.10
2019-03-20T09:30:54.874Z,1.03
2019-03-20T09:33:23.438Z,1.20
2019-03-20T09:35:52.009Z,1.23
2019-03-20T09:38:20.655Z,1.27
2019-03-20T09:40:49.208Z,1.10
2019-03-20T09:43:17.759Z,1.00
2019-03-20T09:45:46.361Z,1.10
2019-03-20T09:48:14.959Z,1.00
2019-03-20T09:50:43.596Z,1.03
2019-03-20T09:53:12.182Z,1.10
2019-03-20T09:55:40.795Z,1.07
2019-03-20T09:58:11.779Z,1.10
2019-03-20T10:00:39.634Z,1.10
2019-03-20T10:03:08.207Z,1.20
2019-03-20T10:05:36.779Z,1.10
2019-03-20T10:08:05.343Z,0.90
2019-03-20T10:10:33.920Z,1.07
2019-03-20T10:13:02.476Z,1.10
2019-03-20T10:15:31.051Z,1.00
2019-03-20T10:17:59.629Z,0.80
2019-03-20T10:20:28.207Z,1.10
2019-03-20T10:22:56.890Z,1.37
2019-03-20T10:25:25.435Z,1.03
2019-03-20T10:27:54.018Z,1.07
2019-03-20T10:30:22.582Z,1.10
2019-03-20T10:32:51.132Z,1.00
2019-03-20T10:35:19.704Z,1.00
2019-03-20T10:37:48.288Z,1.10
2019-03-20T10:40:17.831Z,1.13
2019-03-20T10:42:46.447Z,1.10
2019-03-20T10:45:14.995Z,1.03
2019-03-20T10:47:43.565Z,1.20
2019-03-20T10:50:13.324Z,1.10
2019-03-20T10:52:41.934Z,1.60
2019-03-20T10:55:10.521Z,1.20
2019-03-20T10:57:39.106Z,1.10
2019-03-20T11:00:10.803Z,1.10
2019-03-20T11:02:39.364Z,1.13
2019-03-20T11:05:07.918Z,1.10
2019-03-20T11:07:36.512Z,1.00
2019-03-20T11:10:05.517Z,1.00
2019-03-20T11:12:34.216Z,1.00
2019-03-20T11:15:02.912Z,1.00
2019-03-20T11:17:31.541Z,0.93
2019-03-20T11:20:00.418Z,1.20
2019-03-20T11:22:29.162Z,1.00
2019-03-20T11:24:57.730Z,1.00
2019-03-20T11:27:27.624Z,0.90
2019-03-20T11:29:56.450Z,1.00
2019-03-20T11:32:25.072Z,0.90
2019-03-20T11:34:53.734Z,1.00
2019-03-20T11:37:22.362Z,1.00
2019-03-20T11:39:52.695Z,1.07
2019-03-20T11:42:21.490Z,0.97
2019-03-20T11:44:50.125Z,0.90
2019-03-20T11:47:18.670Z,1.00
2019-03-20T11:49:47.222Z,1.00
2019-03-20T11:52:15.815Z,1.00
2019-03-20T11:54:44.514Z,1.00
2019-03-20T11:57:13.073Z,1.00
2019-03-20T11:59:41.727Z,0.90
2019-03-20T12:02:10.306Z,0.80
2019-03-20T12:04:38.885Z,0.77
2019-03-20T12:07:07.523Z,0.80
2019-03-20T12:09:41.027Z,0.97
2019-03-20T12:12:06.444Z,0.80
2019-03-20T12:14:35.088Z,0.97
2019-03-20T12:17:03.712Z,0.80
2019-03-20T12:19:32.304Z,0.90
2019-03-20T12:22:00.945Z,1.00
2019-03-20T12:24:29.529Z,0.90
2019-03-20T12:26:58.232Z,0.80
2019-03-20T12:29:26.796Z,0.93
2019-03-20T12:31:55.361Z,0.90
2019-03-20T12:34:23.926Z,0.90
2019-03-20T12:36:52.506Z,0.80
2019-03-20T12:39:21.057Z,1.00
2019-03-20T12:41:49.632Z,0.80
2019-03-20T12:44:18.202Z,0.90
2019-03-20T12:46:46.758Z,0.90
2019-03-20T12:49:15.326Z,0.90
2019-03-20T12:51:43.901Z,0.90
2019-03-20T12:54:12.517Z,1.00
2019-03-20T12:56:41.064Z,0.80
2019-03-20T12:59:09.625Z,0.80
2019-03-20T13:01:38.195Z,0.90
2019-03-20T13:04:06.817Z,0.80
2019-03-20T13:06:35.447Z,0.87
2019-03-20T13:09:05.969Z,1.00
2019-03-20T13:11:34.514Z,0.80
2019-03-20T13:14:07.439Z,0.90
2019-03-20T13:16:36.176Z,0.90
2019-03-20T13:19:04.746Z,0.90
2019-03-20T13:21:33.330Z,0.80
2019-03-20T13:24:01.902Z,0.90
2019-03-20T13:26:30.462Z,0.80
2019-03-20T13:28:59.014Z,1.00
2019-03-20T13:31:27.588Z,0.80
2019-03-20T13:33:56.528Z,1.20
2019-03-20T13:36:25.105Z,1.00
2019-03-20T13:38:53.695Z,0.83
2019-03-20T13:41:22.249Z,0.90
2019-03-20T13:43:50.832Z,0.90
2019-03-20T13:46:19.384Z,0.80
2019-03-20T13:48:48.034Z,0.80
2019-03-20T13:51:16.640Z,0.90
2019-03-20T13:53:45.347Z,0.90
2019-03-20T13:56:13.997Z,0.87
2019-03-20T13:58:42.593Z,0.80
2019-03-20T14:01:11.196Z,1.00
2019-03-20T14:03:39.760Z,0.87
2019-03-20T14:06:08.415Z,0.90
2019-03-20T14:08:37.050Z,0.80
2019-03-20T14:11:05.665Z,0.87
2019-03-20T14:13:34.259Z,0.80
2019-03-20T14:16:02.966Z,0.70
2019-03-20T14:18:31.525Z,0.80
2019-03-20T14:21:00.165Z,0.80
2019-03-20T14:23:47.898Z,0.90
2019-03-20T14:26:16.544Z,0.83
2019-03-20T14:28:45.126Z,1.07
2019-03-20T14:31:13.670Z,0.90
2019-03-20T14:33:42.243Z,0.83
2019-03-20T14:36:10.819Z,0.60
2019-03-20T14:38:39.409Z,0.90
2019-03-20T14:41:07.998Z,0.70
2019-03-20T14:43:36.574Z,0.73
2019-03-20T14:46:05.122Z,0.67
2019-03-20T14:48:33.736Z,0.70
2019-03-20T14:51:02.362Z,0.90
2019-03-20T14:53:30.946Z,0.93
2019-03-20T14:55:59.530Z,0.73
2019-03-20T14:58:28.084Z,0.90
2019-03-20T15:00:58.879Z,0.80
2019-03-20T15:03:27.470Z,0.90
2019-03-20T15:05:56.043Z,0.73
2019-03-20T15:08:24.719Z,0.90
2019-03-20T15:10:53.280Z,1.00
2019-03-20T15:13:21.842Z,0.70
2019-03-20T15:15:52.519Z,0.87
2019-03-20T15:18:21.094Z,0.80
2019-03-20T15:20:49.771Z,0.80
2019-03-20T15:23:18.405Z,1.10
2019-03-20T15:25:47.064Z,0.80
2019-03-20T15:28:15.853Z,0.70
2019-03-20T15:30:48.041Z,0.90
2019-03-20T15:33:17.136Z,0.80
2019-03-20T15:35:45.888Z,0.90
2019-03-20T15:38:14.797Z,0.77
2019-03-20T15:40:43.580Z,0.90
2019-03-20T15:43:12.127Z,0.90
2019-03-20T15:45:41.013Z,0.70
2019-03-20T15:48:09.666Z,0.80
2019-03-20T15:50:38.224Z,1.00
2019-03-20T15:53:06.794Z,0.80
2019-03-20T15:55:35.904Z,0.97
2019-03-20T15:58:23.706Z,0.73
2019-03-20T16:00:52.398Z,1.10
2019-03-20T16:03:21.702Z,1.03
2019-03-20T16:05:50.552Z,1.00
2019-03-20T16:08:19.150Z,1.10
2019-03-20T16:10:47.964Z,1.10
2019-03-20T16:13:16.785Z,1.10
2019-03-20T16:15:45.570Z,1.00
2019-03-20T16:18:15.088Z,1.10
2019-03-20T16:20:44.115Z,0.90
2019-03-20T16:23:13.229Z,0.90
2019-03-20T16:25:42.178Z,1.17
2019-03-20T16:28:12.667Z,1.10
2019-03-20T16:30:41.684Z,0.93
2019-03-20T16:33:13.159Z,1.30
2019-03-20T16:35:41.794Z,1.00
2019-03-20T16:38:10.377Z,1.00
2019-03-20T16:40:38.989Z,1.17
2019-03-20T16:43:07.568Z,1.00
2019-03-20T16:45:36.149Z,1.10
2019-03-20T16:48:04.760Z,1.17
2019-03-20T16:50:33.339Z,1.10
2019-03-20T16:53:02.129Z,1.07
2019-03-20T16:55:30.726Z,1.50
2019-03-20T16:57:59.359Z,0.90
2019-03-20T17:00:28.152Z,1.00
2019-03-20T17:02:56.932Z,1.30
2019-03-20T17:05:25.481Z,1.00
2019-03-20T17:07:54.042Z,1.20
2019-03-20T17:10:23.713Z,1.10
2019-03-20T17:12:52.386Z,1.10
2019-03-20T17:15:21.597Z,1.10
2019-03-20T17:17:50.158Z,1.10
2019-03-20T17:20:18.750Z,1.30
2019-03-20T17:22:47.338Z,0.93
2019-03-20T17:25:15.908Z,1.20
2019-03-20T17:27:44.568Z,1.10
2019-03-20T17:33:23.070Z,1.30
2019-03-20T17:35:51.655Z,1.10
2019-03-20T17:38:20.222Z,1.30
2019-03-20T17:40:48.845Z,1.10
2019-03-20T17:43:17.424Z,1.20
2019-03-20T17:45:46.060Z,1.00
2019-03-20T17:48:14.628Z,1.20
2019-03-20T17:50:43.193Z,1.10
2019-03-20T17:53:11.751Z,1.20
2019-03-20T17:55:40.359Z,1.40
2019-03-20T17:58:08.917Z,1.20
2019-03-20T18:00:39.620Z,1.23
2019-03-20T18:03:08.254Z,1.00
2019-03-20T18:05:36.897Z,1.17
2019-03-20T18:08:10.762Z,1.20
2019-03-20T18:10:39.305Z,1.00
2019-03-20T18:13:08.121Z,1.10
2019-03-20T18:15:36.772Z,1.00
2019-03-20T18:18:05.705Z,1.20
2019-03-20T18:20:34.267Z,1.00
2019-03-20T18:23:03.053Z,1.10
2019-03-20T18:25:31.659Z,1.13
2019-03-20T18:28:00.253Z,1.00
2019-03-20T18:30:28.894Z,1.17
2019-03-20T18:32:57.517Z,1.10
2019-03-20T18:35:27.440Z,1.37
2019-03-20T18:37:56.021Z,1.20
2019-03-20T18:40:24.655Z,0.80
2019-03-20T18:42:53.208Z,1.00
2019-03-20T18:45:21.806Z,1.37
2019-03-20T18:50:20.807Z,1.10
2019-03-20T18:52:49.423Z,1.10
2019-03-20T18:55:18.027Z,1.20
2019-03-20T18:57:46.594Z,1.10
2019-03-20T19:00:19.053Z,1.00
2019-03-20T19:02:47.646Z,0.93
2019-03-20T19:05:17.861Z,1.10
2019-03-20T19:07:46.430Z,1.13
2019-03-20T19:10:15.052Z,1.20
2019-03-20T19:12:43.632Z,1.10
2019-03-20T19:15:13.803Z,1.03
2019-03-20T19:17:42.565Z,1.00
2019-03-20T19:20:11.239Z,1.50
2019-03-20T19:22:39.883Z,1.10
2019-03-20T19:25:08.894Z,1.10
2019-03-20T19:27:37.469Z,1.10
2019-03-20T19:30:06.476Z,1.03
2019-03-20T19:32:35.083Z,1.17
2019-03-20T19:35:05.456Z,1.47
2019-03-20T19:37:34.066Z,1.00
2019-03-20T19:40:02.743Z,1.07
2019-03-20T19:42:31.323Z,1.03
2019-03-20T19:44:59.955Z,0.90
2019-03-20T19:47:28.558Z,1.00
2019-03-20T19:50:00.928Z,0.93
2019-03-20T19:52:29.539Z,1.00
2019-03-20T19:54:58.167Z,1.10
2019-03-20T19:57:26.748Z,1.20
2019-03-20T19:59:55.375Z,1.10
2019-03-20T20:02:23.991Z,1.00
2019-03-20T20:04:52.567Z,1.10
2019-03-20T20:07:21.156Z,0.90
2019-03-20T20:09:49.751Z,1.10
2019-03-20T20:12:19.275Z,1.00
2019-03-20T20:14:47.890Z,1.00
2019-03-20T20:17:16.456Z,1.00
2019-03-20T20:19:45.137Z,1.00
2019-03-20T20:22:13.758Z,1.20
2019-03-20T20:24:42.339Z,0.97
2019-03-20T20:27:10.942Z,1.10
2019-03-20T20:29:39.573Z,1.17
2019-03-20T20:32:08.176Z,1.20
2019-03-20T20:34:36.793Z,1.20
2019-03-20T20:37:06.851Z,1.00
2019-03-20T20:39:35.523Z,1.00
2019-03-20T20:42:04.108Z,1.00
2019-03-20T20:44:32.663Z,1.10
2019-03-20T20:47:01.213Z,1.07
2019-03-20T20:49:32.170Z,1.00
2019-03-20T20:52:00.139Z,1.10
2019-03-20T20:54:28.702Z,0.97
2019-03-20T20:56:57.300Z,1.03
2019-03-20T20:59:25.850Z,1.20
2019-03-20T21:01:54.428Z,1.30
2019-03-20T21:04:23.046Z,1.20
2019-03-20T21:06:51.607Z,1.20
2019-03-20T21:09:20.182Z,1.00
2019-03-20T21:11:48.774Z,0.97
2019-03-20T21:14:17.344Z,1.03
2019-03-20T21:16:46.190Z,1.00
2019-03-20T21:19:33.058Z,1.00
2019-03-20T21:22:20.845Z,1.00
2019-03-20T21:24:49.822Z,1.03
2019-03-20T21:27:40.570Z,1.10
2019-03-20T21:30:31.282Z,1.10
2019-03-20T21:33:00.311Z,1.00
2019-03-20T21:35:48.067Z,0.93
2019-03-20T21:38:15.945Z,1.10
2019-03-20T21:41:03.764Z,1.20
2019-03-20T21:43:54.771Z,1.10
2019-03-20T21:46:57.334Z,0.90
2019-03-20T21:49:26.175Z,1.20
2019-03-20T21:51:55.076Z,1.10
2019-03-20T21:54:43.514Z,1.10
2019-03-20T22:00:10.095Z,1.00
2019-03-20T22:02:42.383Z,1.07
2019-03-20T22:05:22.769Z,1.07
2019-03-20T22:07:43.983Z,1.20
2019-03-20T22:10:43.755Z,1.17
2019-03-20T22:13:31.663Z,1.40
2019-03-20T22:16:05.756Z,1.10
2019-03-20T22:18:59.339Z,0.97
2019-03-20T22:21:35.783Z,1.20
2019-03-20T22:24:12.095Z,1.20
2019-03-20T22:26:58.434Z,1.20
2019-03-20T22:29:28.039Z,1.40
2019-03-20T22:32:21.489Z,1.33
2019-03-20T22:34:58.205Z,1.30
2019-03-20T22:37:27.090Z,1.10
2019-03-20T22:40:13.563Z,1.20
2019-03-20T22:42:44.986Z,1.30
2019-03-20T22:45:35.737Z,1.30
2019-03-20T22:48:22.032Z,1.17
2019-03-20T22:51:02.791Z,1.03
2019-03-20T22:53:36.874Z,1.40
2019-03-20T22:56:27.317Z,1.40
2019-03-20T22:58:56.179Z,1.40
2019-03-20T23:01:39.099Z,1.20
2019-03-20T23:04:10.490Z,1.13
2019-03-20T23:06:39.339Z,1.13
2019-03-20T23:09:08.542Z,1.10
2019-03-20T23:11:37.388Z,1.23
2019-03-20T23:14:06.231Z,1.27
2019-03-20T23:16:35.174Z,1.20
2019-03-20T23:19:04.024Z,1.20
2019-03-20T23:21:32.839Z,1.40
2019-03-20T23:24:01.798Z,1.30
2019-03-20T23:26:30.668Z,1.30
2019-03-20T23:28:59.585Z,1.20
2019-03-20T23:31:28.418Z,1.30
2019-03-20T23:33:57.259Z,1.30
2019-03-20T23:36:26.428Z,1.23
2019-03-20T23:38:55.360Z,1.40
2019-03-20T23:41:24.197Z,1.50
2019-03-20T23:43:53.492Z,1.20
2019-03-20T23:46:22.551Z,1.20
2019-03-20T23:48:55.997Z,1.43
2019-03-20T23:51:24.938Z,1.20
2019-03-20T23:53:54.389Z,1.10
2019-03-20T23:56:23.533Z,1.10
2019-03-20T23:58:52.391Z,1.20
